Thunder radar more information blitzortung!


Radar de pluja more information rain snow radar


Visita la nostra xarxa de llocs de meteo:

Template documentation
and downloads

And another site



No particular awareness of the weather is required.    There are no Weather-warnings

Pagina Historial Weather Underground text

Diari Resum January 7, 2016 Unitats:  Mètric    Imperial   Tant
« Previous Dia
SegĂźent Dia »
Diari Setmana Mensual Anual Personalitzada
  Maxima: Minima: Media:
Temperatura: 19.0 °C 13.4 °C 16.4 °C
Punt de rosada: 8.4 °C 6.0 °C 7.8 °C
Humitat: 65 % 49 % 57 %
Wind Speed: 14.8 km/h 1.6 km/h 7.2 km/h
RĂ fegues de vent: 14.8 km/h - -
Vent:- - WNW
Pression baro: 1010.7 hPa 1008.0 hPa -
Precipitacions: 0.0 mm    
Historical Graphs
 
 
Dades de taula per January 7, 2016
Temps Temperatura Punt de rosada Pression baro Vent Wind Speed RĂ fegues de vent Humitat Rainfall Rate (Hourly)
10:59 13.4 °C 6.0 °C 1010.0 hPa WNW 10.0 km/h 10.0 km/h 61 % 0.0 mm
11:04 13.7 °C 6.3 °C 1010.0 hPa WSW 7.4 km/h 7.6 km/h 61 % 0.0 mm
11:09 14.0 °C 6.6 °C 1010.0 hPa WSW 9.3 km/h 9.3 km/h 61 % 0.0 mm
11:14 14.3 °C 6.6 °C 1010.0 hPa WSW 11.1 km/h 11.1 km/h 60 % 0.0 mm
11:19 14.6 °C 6.9 °C 1010.0 hPa SW 9.3 km/h 9.3 km/h 60 % 0.0 mm
11:24 14.8 °C 7.1 °C 1010.0 hPa WSW 7.4 km/h 7.4 km/h 60 % 0.0 mm
11:29 15.0 °C 7.1 °C 1010.0 hPa SW 9.3 km/h 9.3 km/h 59 % 0.0 mm
11:34 15.3 °C 7.1 °C 1010.0 hPa WSW 7.6 km/h 10.0 km/h 58 % 0.0 mm
11:39 15.4 °C 6.9 °C 1010.0 hPa SW 13.0 km/h 13.0 km/h 57 % 0.0 mm
11:44 15.5 °C 7.0 °C 1010.0 hPa South 6.1 km/h 8.7 km/h 57 % 0.0 mm
11:49 15.5 °C 6.8 °C 1010.0 hPa West 10.0 km/h 10.0 km/h 56 % 0.0 mm
11:54 15.6 °C 6.8 °C 1010.0 hPa WNW 11.1 km/h 11.1 km/h 56 % 0.0 mm
11:59 15.7 °C 6.9 °C 1010.0 hPa SW 12.6 km/h 12.6 km/h 56 % 0.0 mm
12:04 15.8 °C 7.1 °C 1010.0 hPa WSW 7.4 km/h 7.4 km/h 56 % 0.0 mm
12:09 16.0 °C 7.2 °C 1009.0 hPa West 9.3 km/h 9.3 km/h 56 % 0.0 mm
12:14 16.1 °C 7.3 °C 1009.0 hPa WSW 6.1 km/h 6.1 km/h 56 % 0.0 mm
12:19 16.3 °C 7.5 °C 1009.0 hPa WSW 9.3 km/h 9.3 km/h 56 % 0.0 mm
12:24 16.5 °C 7.4 °C 1010.0 hPa SSE 9.3 km/h 9.3 km/h 55 % 0.0 mm
12:29 16.8 °C 7.7 °C 1010.0 hPa SW 7.4 km/h 7.4 km/h 55 % 0.0 mm
12:34 17.1 °C 7.7 °C 1010.0 hPa West 11.1 km/h 11.1 km/h 54 % 0.0 mm
12:39 17.1 °C 7.4 °C 1010.0 hPa SSW 9.3 km/h 11.1 km/h 53 % 0.0 mm
12:44 17.2 °C 7.6 °C 1010.0 hPa WSW 9.3 km/h 9.3 km/h 53 % 0.0 mm
12:49 17.2 °C 7.3 °C 1010.0 hPa West 13.0 km/h 13.0 km/h 52 % 0.0 mm
12:54 17.2 °C 7.6 °C 1009.0 hPa West 9.3 km/h 9.3 km/h 53 % 0.0 mm
12:59 17.1 °C 7.2 °C 1009.0 hPa SW 14.8 km/h 14.8 km/h 52 % 0.0 mm
13:04 17.3 °C 7.3 °C 1009.0 hPa SW 11.1 km/h 11.1 km/h 52 % 0.0 mm
13:09 17.3 °C 7.3 °C 1009.0 hPa SW 13.0 km/h 13.0 km/h 52 % 0.0 mm
13:14 17.5 °C 7.6 °C 1009.0 hPa WSW 9.3 km/h 9.3 km/h 52 % 0.0 mm
13:19 17.5 °C 7.6 °C 1009.0 hPa WNW 13.0 km/h 13.0 km/h 52 % 0.0 mm
13:24 17.6 °C 7.6 °C 1009.0 hPa West 5.8 km/h 5.8 km/h 52 % 0.0 mm
13:29 17.7 °C 7.7 °C 1009.0 hPa South 7.9 km/h 7.9 km/h 52 % 0.0 mm
13:34 17.7 °C 7.4 °C 1009.0 hPa WSW 9.3 km/h 9.7 km/h 51 % 0.0 mm
13:39 17.8 °C 7.5 °C 1009.0 hPa SSW 7.9 km/h 7.9 km/h 51 % 0.0 mm
13:44 18.0 °C 7.7 °C 1009.0 hPa SW 13.0 km/h 13.0 km/h 51 % 0.0 mm
13:49 18.3 °C 8.0 °C 1009.0 hPa SW 4.2 km/h 10.3 km/h 51 % 0.0 mm
13:54 18.3 °C 8.0 °C 1009.0 hPa SSW 9.3 km/h 10.0 km/h 51 % 0.0 mm
13:59 18.4 °C 8.1 °C 1009.0 hPa West 9.3 km/h 9.3 km/h 51 % 0.0 mm
14:04 18.5 °C 8.2 °C 1009.0 hPa West 7.4 km/h 8.7 km/h 51 % 0.0 mm
14:09 18.6 °C 7.9 °C 1008.0 hPa West 7.4 km/h 8.7 km/h 50 % 0.0 mm
14:14 18.6 °C 7.9 °C 1008.0 hPa West 7.4 km/h 8.7 km/h 50 % 0.0 mm
14:19 18.7 °C 8.1 °C 1008.0 hPa West 7.4 km/h 8.7 km/h 50 % 0.0 mm
14:24 18.8 °C 8.2 °C 1008.0 hPa West 7.4 km/h 8.7 km/h 50 % 0.0 mm
14:29 18.8 °C 8.2 °C 1008.0 hPa West 7.4 km/h 8.7 km/h 50 % 0.0 mm
14:34 18.8 °C 8.2 °C 1008.0 hPa West 7.4 km/h 8.7 km/h 50 % 0.0 mm
14:39 18.9 °C 8.2 °C 1008.0 hPa West 7.4 km/h 8.7 km/h 50 % 0.0 mm
14:44 18.9 °C 8.2 °C 1008.0 hPa West 7.4 km/h 8.7 km/h 50 % 0.0 mm
14:49 18.8 °C 8.2 °C 1008.0 hPa West 7.4 km/h 8.7 km/h 50 % 0.0 mm
14:54 18.8 °C 8.2 °C 1008.0 hPa West 7.4 km/h 8.7 km/h 50 % 0.0 mm
14:59 19.0 °C 8.1 °C 1008.0 hPa West 7.4 km/h 8.7 km/h 49 % 0.0 mm
15:04 18.9 °C 8.2 °C 1008.0 hPa West 7.4 km/h 8.7 km/h 50 % 0.0 mm
15:09 18.9 °C 8.2 °C 1009.0 hPa West 7.4 km/h 8.7 km/h 50 % 0.0 mm
15:14 18.9 °C 8.2 °C 1009.0 hPa NNW 9.5 km/h 9.5 km/h 50 % 0.0 mm
15:19 18.8 °C 8.2 °C 1009.0 hPa NNW 9.5 km/h 9.5 km/h 50 % 0.0 mm
15:24 18.8 °C 8.2 °C 1010.0 hPa NNW 9.5 km/h 9.5 km/h 50 % 0.0 mm
15:29 18.8 °C 8.4 °C 1010.0 hPa NNW 9.5 km/h 9.5 km/h 51 % 0.0 mm
15:34 18.6 °C 8.3 °C 1010.0 hPa NNW 9.5 km/h 9.5 km/h 51 % 0.0 mm
15:39 18.5 °C 8.2 °C 1010.0 hPa NNW 9.5 km/h 9.5 km/h 51 % 0.0 mm
15:44 18.5 °C 8.2 °C 1010.0 hPa NNW 9.5 km/h 9.5 km/h 51 % 0.0 mm
15:49 18.5 °C 8.2 °C 1010.0 hPa NNW 9.5 km/h 9.5 km/h 51 % 0.0 mm
15:54 18.5 °C 8.2 °C 1010.0 hPa NNW 9.5 km/h 9.5 km/h 51 % 0.0 mm
15:59 18.4 °C 8.1 °C 1010.0 hPa NNW 9.5 km/h 9.5 km/h 51 % 0.0 mm
16:04 18.5 °C 8.2 °C 1010.0 hPa NNW 9.5 km/h 9.5 km/h 51 % 0.0 mm
16:09 18.6 °C 8.3 °C 1010.0 hPa NNW 9.5 km/h 9.5 km/h 51 % 0.0 mm
16:14 18.6 °C 8.3 °C 1010.0 hPa NNW 9.5 km/h 9.5 km/h 51 % 0.0 mm
16:19 18.5 °C 8.2 °C 1010.0 hPa NNW 9.5 km/h 9.5 km/h 51 % 0.0 mm
16:24 18.3 °C 8.0 °C 1010.0 hPa NNW 9.5 km/h 9.5 km/h 51 % 0.0 mm
16:29 18.2 °C 7.9 °C 1010.0 hPa NNW 9.5 km/h 9.5 km/h 51 % 0.0 mm
16:34 18.1 °C 8.1 °C 1010.0 hPa NNW 9.5 km/h 9.5 km/h 52 % 0.0 mm
16:39 18.1 °C 8.1 °C 1010.0 hPa NNW 9.5 km/h 9.5 km/h 52 % 0.0 mm
16:44 18.0 °C 8.0 °C 1010.0 hPa NNW 9.5 km/h 9.5 km/h 52 % 0.0 mm
16:49 17.9 °C 7.9 °C 1010.0 hPa NNW 9.5 km/h 9.5 km/h 52 % 0.0 mm
16:54 17.9 °C 7.9 °C 1010.0 hPa NNW 9.5 km/h 9.5 km/h 52 % 0.0 mm
16:59 17.8 °C 7.8 °C 1010.0 hPa NNW 9.5 km/h 9.5 km/h 52 % 0.0 mm
17:04 17.7 °C 8.0 °C 1010.0 hPa NNW 9.5 km/h 9.5 km/h 53 % 0.0 mm
17:09 17.6 °C 7.9 °C 1010.0 hPa NNW 9.5 km/h 9.5 km/h 53 % 0.0 mm
17:14 17.4 °C 7.7 °C 1010.0 hPa NNW 9.5 km/h 9.5 km/h 53 % 0.0 mm
17:19 17.3 °C 7.6 °C 1010.0 hPa NNW 9.5 km/h 9.5 km/h 53 % 0.0 mm
17:24 17.1 °C 7.7 °C 1009.0 hPa NNW 9.5 km/h 9.5 km/h 54 % 0.0 mm
17:29 17.0 °C 7.6 °C 1009.0 hPa NNW 9.5 km/h 9.5 km/h 54 % 0.0 mm
17:34 16.8 °C 7.7 °C 1009.0 hPa NNW 9.5 km/h 9.5 km/h 55 % 0.0 mm
17:39 16.6 °C 7.5 °C 1010.0 hPa NNW 9.5 km/h 9.5 km/h 55 % 0.0 mm
17:44 16.5 °C 7.7 °C 1010.0 hPa NNW 9.5 km/h 9.5 km/h 56 % 0.0 mm
17:50 16.4 °C 7.6 °C 1010.0 hPa NNW 9.5 km/h 9.5 km/h 56 % 0.0 mm
17:55 16.3 °C 7.5 °C 1010.0 hPa NNW 9.5 km/h 9.5 km/h 56 % 0.0 mm
18:00 16.2 °C 7.7 °C 1010.0 hPa NNW 9.5 km/h 9.5 km/h 57 % 0.0 mm
18:05 16.1 °C 7.6 °C 1010.0 hPa NNW 9.5 km/h 9.5 km/h 57 % 0.0 mm
18:10 16.1 °C 7.8 °C 1010.0 hPa NNW 9.5 km/h 9.5 km/h 58 % 0.0 mm
18:15 16.1 °C 7.8 °C 1010.0 hPa NNW 8.0 km/h 9.7 km/h 58 % 0.0 mm
18:20 16.1 °C 7.8 °C 1010.0 hPa NNW 8.0 km/h 9.7 km/h 58 % 0.0 mm
18:25 16.0 °C 8.0 °C 1010.0 hPa NNW 8.0 km/h 9.7 km/h 59 % 0.0 mm
18:30 15.9 °C 7.9 °C 1010.0 hPa NNW 8.0 km/h 9.7 km/h 59 % 0.0 mm
18:35 15.8 °C 7.8 °C 1010.0 hPa NNW 8.0 km/h 9.7 km/h 59 % 0.0 mm
18:40 15.8 °C 8.1 °C 1010.0 hPa NNW 8.0 km/h 9.7 km/h 60 % 0.0 mm
18:45 15.7 °C 7.9 °C 1010.0 hPa NNW 8.0 km/h 9.7 km/h 60 % 0.0 mm
18:50 15.8 °C 8.1 °C 1010.0 hPa NNW 8.0 km/h 9.7 km/h 60 % 0.0 mm
19:00 15.7 °C 7.9 °C 1010.0 hPa NNW 8.0 km/h 9.7 km/h 60 % 0.0 mm
19:05 15.7 °C 7.9 °C 1010.0 hPa NNW 8.0 km/h 9.7 km/h 60 % 0.0 mm
19:10 15.8 °C 8.1 °C 1010.0 hPa NNW 8.0 km/h 9.7 km/h 60 % 0.0 mm
19:15 15.8 °C 8.1 °C 1010.0 hPa NNW 8.0 km/h 9.7 km/h 60 % 0.0 mm
19:20 15.8 °C 8.1 °C 1010.0 hPa WSW 9.3 km/h 9.3 km/h 60 % 0.0 mm
19:25 15.8 °C 8.0 °C 1010.0 hPa West 3.2 km/h 3.2 km/h 60 % 0.0 mm
19:30 15.7 °C 7.9 °C 1010.0 hPa WSW 3.2 km/h 3.2 km/h 60 % 0.0 mm
19:35 15.7 °C 8.2 °C 1010.0 hPa WSW 3.2 km/h 3.2 km/h 61 % 0.0 mm
19:40 15.6 °C 8.1 °C 1010.0 hPa WSW 4.8 km/h 8.0 km/h 61 % 0.0 mm
19:45 15.6 °C 8.1 °C 1010.0 hPa West 3.2 km/h 6.4 km/h 61 % 0.0 mm
19:50 15.4 °C 7.9 °C 1010.0 hPa WSW 3.2 km/h 4.8 km/h 61 % 0.0 mm
19:55 15.3 °C 7.9 °C 1010.0 hPa WSW 4.8 km/h 4.8 km/h 61 % 0.0 mm
20:00 15.3 °C 7.8 °C 1010.0 hPa WSW 3.2 km/h 4.8 km/h 61 % 0.0 mm
20:05 15.2 °C 7.9 °C 1010.0 hPa WSW 3.2 km/h 4.8 km/h 62 % 0.0 mm
20:10 15.1 °C 7.6 °C 1010.0 hPa WNW 1.6 km/h 4.8 km/h 61 % 0.0 mm
20:15 15.0 °C 7.8 °C 1010.0 hPa WNW 3.2 km/h 4.8 km/h 62 % 0.0 mm
20:20 14.9 °C 7.7 °C 1010.0 hPa WNW 3.2 km/h 3.2 km/h 62 % 0.0 mm
20:25 14.8 °C 7.6 °C 1010.4 hPa WNW 3.2 km/h 3.2 km/h 62 % 0.0 mm
20:30 14.7 °C 7.5 °C 1010.7 hPa WNW 3.2 km/h 3.2 km/h 62 % 0.0 mm
20:35 14.6 °C 7.4 °C 1010.7 hPa WNW 1.6 km/h 3.2 km/h 62 % 0.0 mm
20:40 14.6 °C 7.3 °C 1010.7 hPa WNW 1.6 km/h 3.2 km/h 62 % 0.0 mm
20:45 14.5 °C 7.6 °C 1010.7 hPa West 1.6 km/h 3.2 km/h 63 % 0.0 mm
20:50 14.4 °C 7.5 °C 1010.7 hPa West 1.6 km/h 3.2 km/h 63 % 0.0 mm
20:55 14.4 °C 7.4 °C 1010.7 hPa WNW 1.6 km/h 1.6 km/h 63 % 0.0 mm
21:00 14.3 °C 7.4 °C 1010.7 hPa West 3.2 km/h 3.2 km/h 63 % 0.0 mm
21:05 14.4 °C 7.4 °C 1010.7 hPa West 3.2 km/h 4.8 km/h 63 % 0.0 mm
21:10 14.5 °C 7.8 °C 1010.4 hPa West 3.2 km/h 3.2 km/h 64 % 0.0 mm
21:15 14.7 °C 7.9 °C 1010.0 hPa West 3.2 km/h 3.2 km/h 64 % 0.0 mm
21:20 14.9 °C 8.2 °C 1010.0 hPa West 3.2 km/h 3.2 km/h 64 % 0.0 mm
21:25 15.1 °C 8.3 °C 1009.4 hPa West 3.2 km/h 3.2 km/h 64 % 0.0 mm
21:30 15.1 °C 8.3 °C 1009.0 hPa West 3.2 km/h 3.2 km/h 64 % 0.0 mm
21:35 15.1 °C 8.3 °C 1009.0 hPa West 3.2 km/h 3.2 km/h 64 % 0.0 mm
21:40 15.2 °C 8.4 °C 1009.7 hPa West 3.2 km/h 3.2 km/h 64 % 0.0 mm
21:45 15.1 °C 8.3 °C 1010.7 hPa West 3.2 km/h 3.2 km/h 64 % 0.0 mm
21:50 15.0 °C 8.2 °C 1010.7 hPa West 3.2 km/h 3.2 km/h 64 % 0.0 mm
21:55 15.1 °C 8.3 °C 1010.7 hPa West 2.6 km/h 3.5 km/h 64 % 0.0 mm
22:00 15.2 °C 8.4 °C 1010.7 hPa West 2.6 km/h 3.5 km/h 64 % 0.0 mm
22:05 15.1 °C 8.3 °C 1010.7 hPa West 2.6 km/h 3.5 km/h 64 % 0.0 mm
22:10 15.1 °C 8.3 °C 1010.7 hPa West 2.6 km/h 3.5 km/h 64 % 0.0 mm
22:15 15.0 °C 8.2 °C 1010.7 hPa West 2.6 km/h 3.5 km/h 64 % 0.0 mm
22:20 14.7 °C 7.9 °C 1010.7 hPa West 2.6 km/h 3.5 km/h 64 % 0.0 mm
22:25 14.6 °C 7.8 °C 1010.7 hPa WSW 3.2 km/h 6.4 km/h 64 % 0.0 mm
22:30 14.4 °C 7.7 °C 1010.7 hPa SW 3.2 km/h 6.4 km/h 64 % 0.0 mm
22:35 14.4 °C 7.7 °C 1010.7 hPa SW 5.8 km/h 5.8 km/h 64 % 0.0 mm
22:40 14.3 °C 7.6 °C 1010.4 hPa SW 3.2 km/h 6.4 km/h 64 % 0.0 mm
22:45 14.2 °C 7.5 °C 1010.0 hPa SW 5.8 km/h 5.8 km/h 64 % 0.0 mm
22:50 14.2 °C 7.5 °C 1010.0 hPa SW 3.2 km/h 6.4 km/h 64 % 0.0 mm
22:55 14.3 °C 7.8 °C 1010.0 hPa SW 3.2 km/h 6.4 km/h 65 % 0.0 mm
23:00 14.2 °C 7.7 °C 1010.0 hPa SW 3.2 km/h 6.4 km/h 65 % 0.0 mm
23:05 14.4 °C 7.7 °C 1010.0 hPa SW 3.2 km/h 6.4 km/h 64 % 0.0 mm
23:10 14.5 °C 7.8 °C 1010.0 hPa SW 3.2 km/h 6.4 km/h 64 % 0.0 mm
23:15 14.6 °C 7.9 °C 1010.0 hPa SW 5.8 km/h 5.8 km/h 64 % 0.0 mm
Meteo Sesrovires
Elogis d' Weather Underground - 3.25 mb

Guio original per  Jim McMurry - jmcmurry@mwt.net Adaptat per a la plantilla per  Wim van der Kuil - Leuven-Template.eu

Trobareu la nostra informacio del temps tambe a:

Weather Underground

AWEKAS